createdAt,value
2022-07-28T00:00:42.140Z,9.98
2022-07-28T00:03:08.677Z,9.83
2022-07-28T00:05:35.242Z,9.75
2022-07-28T00:08:01.711Z,9.62
2022-07-28T00:10:28.169Z,9.52
2022-07-28T00:12:54.801Z,9.48
2022-07-28T00:15:21.251Z,9.50
2022-07-28T00:17:47.731Z,9.51
2022-07-28T00:20:14.274Z,9.54
2022-07-28T00:22:44.834Z,9.54
2022-07-28T00:25:12.352Z,9.50
2022-07-28T00:27:39.415Z,9.49
2022-07-28T00:30:06.236Z,9.49
2022-07-28T00:32:33.386Z,9.50
2022-07-28T00:35:00.536Z,9.45
2022-07-28T00:37:29.001Z,9.36
2022-07-28T00:39:55.955Z,9.28
2022-07-28T00:42:22.578Z,9.27
2022-07-28T00:44:49.116Z,9.27
2022-07-28T00:47:15.806Z,9.26
2022-07-28T00:49:44.763Z,9.29
2022-07-28T00:52:12.252Z,9.29
2022-07-28T00:54:39.175Z,9.31
2022-07-28T00:57:05.701Z,9.29
2022-07-28T00:59:33.930Z,9.14
2022-07-28T01:02:01.402Z,9.06
2022-07-28T01:04:28.711Z,9.04
2022-07-28T01:07:08.620Z,8.98
2022-07-28T01:09:59.485Z,8.94
2022-07-28T01:12:28.872Z,8.96
2022-07-28T01:15:20.011Z,9.00
2022-07-28T01:18:07.450Z,9.02
2022-07-28T01:20:49.936Z,9.06
2022-07-28T01:23:31.557Z,9.03
2022-07-28T01:26:22.934Z,9.04
2022-07-28T01:29:16.404Z,9.03
2022-07-28T01:31:48.579Z,9.01
2022-07-28T01:34:32.240Z,8.98
2022-07-28T01:37:07.035Z,8.97
2022-07-28T01:39:36.226Z,8.93
2022-07-28T01:42:06.381Z,8.88
2022-07-28T01:44:38.213Z,8.86
2022-07-28T01:47:07.940Z,8.84
2022-07-28T01:49:36.331Z,8.82
2022-07-28T01:52:06.907Z,8.84
2022-07-28T01:54:37.277Z,8.81
2022-07-28T01:57:05.053Z,8.81
2022-07-28T01:59:38.422Z,8.79
2022-07-28T02:02:07.129Z,8.78
2022-07-28T02:04:37.505Z,8.77
2022-07-28T02:07:05.433Z,8.76
2022-07-28T02:09:34.711Z,8.72
2022-07-28T02:12:03.911Z,8.69
2022-07-28T02:14:30.998Z,8.69
2022-07-28T02:16:58.805Z,8.65
2022-07-28T02:19:27.101Z,8.61
2022-07-28T02:21:55.468Z,8.58
2022-07-28T02:24:26.721Z,8.56
2022-07-28T02:27:00.990Z,8.51
2022-07-28T02:29:50.312Z,8.52
2022-07-28T02:32:28.190Z,8.47
2022-07-28T02:35:05.525Z,8.44
2022-07-28T02:37:38.668Z,8.40
2022-07-28T02:40:09.467Z,8.40
2022-07-28T02:42:38.224Z,8.37
2022-07-28T02:45:08.460Z,8.20
2022-07-28T02:47:40.782Z,8.03
2022-07-28T02:50:08.967Z,7.88
2022-07-28T02:52:36.737Z,7.85
2022-07-28T02:55:04.809Z,7.74
2022-07-28T02:57:32.580Z,7.57
2022-07-28T02:59:59.772Z,7.57
2022-07-28T03:02:30.954Z,7.61
2022-07-28T03:05:07.597Z,7.62
2022-07-28T03:07:41.584Z,7.66
2022-07-28T03:10:33.350Z,7.64
2022-07-28T03:13:02.900Z,7.65
2022-07-28T03:15:29.565Z,7.64
2022-07-28T03:17:56.334Z,7.65
2022-07-28T03:20:23.033Z,7.66
2022-07-28T03:22:49.809Z,7.64
2022-07-28T03:25:23.546Z,7.59
2022-07-28T03:27:53.006Z,7.59
2022-07-28T03:30:26.698Z,7.59
2022-07-28T03:32:59.826Z,7.62
2022-07-28T03:35:27.961Z,7.60
2022-07-28T03:37:59.215Z,7.62
2022-07-28T03:40:29.823Z,7.62
2022-07-28T03:42:58.120Z,7.63
2022-07-28T03:45:25.508Z,7.64
2022-07-28T03:47:54.980Z,7.62
2022-07-28T03:50:25.626Z,7.61
2022-07-28T03:52:53.134Z,7.63
2022-07-28T03:55:20.042Z,7.63
2022-07-28T03:57:47.330Z,7.62
2022-07-28T04:00:16.669Z,7.67
2022-07-28T04:02:44.755Z,7.66
2022-07-28T04:05:12.172Z,7.70
2022-07-28T04:07:40.291Z,7.75
2022-07-28T04:10:12.888Z,7.80
2022-07-28T04:12:55.698Z,7.87
2022-07-28T04:15:24.152Z,7.93
2022-07-28T04:17:53.175Z,7.99
2022-07-28T04:20:21.678Z,8.05
2022-07-28T04:22:49.478Z,8.13
2022-07-28T04:25:18.759Z,8.18
2022-07-28T04:27:45.724Z,8.26
2022-07-28T04:30:17.426Z,8.32
2022-07-28T04:32:49.638Z,8.38
2022-07-28T04:35:18.172Z,8.44
2022-07-28T04:37:46.673Z,8.50
2022-07-28T04:40:14.407Z,8.54
2022-07-28T04:42:41.899Z,8.64
2022-07-28T04:45:11.745Z,8.74
2022-07-28T04:47:39.086Z,8.91
2022-07-28T04:50:08.205Z,9.13
2022-07-28T04:52:35.067Z,9.29
2022-07-28T04:55:02.203Z,9.42
2022-07-28T04:57:30.597Z,9.51
2022-07-28T04:59:58.337Z,9.63
2022-07-28T05:02:25.090Z,9.71
2022-07-28T05:04:52.083Z,9.79
2022-07-28T05:07:18.739Z,9.88
2022-07-28T05:09:45.664Z,9.97
2022-07-28T05:12:12.436Z,10.08
2022-07-28T05:14:39.350Z,10.20
2022-07-28T05:17:05.981Z,10.34
2022-07-28T05:19:32.616Z,10.52
2022-07-28T05:21:59.288Z,10.68
2022-07-28T05:24:25.933Z,10.89
2022-07-28T05:26:52.845Z,11.19
2022-07-28T05:29:19.670Z,11.57
2022-07-28T05:31:46.347Z,12.15
2022-07-28T05:34:13.393Z,13.08
2022-07-28T05:36:40.309Z,14.01
2022-07-28T05:39:07.063Z,14.62
2022-07-28T05:41:34.296Z,15.53
2022-07-28T05:44:01.828Z,16.50
2022-07-28T05:46:28.857Z,17.56
2022-07-28T05:48:55.658Z,18.36
2022-07-28T05:51:22.374Z,19.27
2022-07-28T05:53:49.006Z,20.22
2022-07-28T05:56:15.837Z,20.62
2022-07-28T05:58:42.487Z,20.68
2022-07-28T06:01:09.300Z,20.71
2022-07-28T06:03:41.850Z,20.85
2022-07-28T06:06:14.850Z,20.72
2022-07-28T06:08:44.543Z,20.61
2022-07-28T06:11:20.487Z,20.55
2022-07-28T06:13:51.045Z,20.73
2022-07-28T06:16:19.828Z,21.62
2022-07-28T06:18:46.723Z,21.94
2022-07-28T06:21:13.297Z,22.08
2022-07-28T06:23:40.155Z,22.19
2022-07-28T06:26:06.943Z,21.86
2022-07-28T06:28:33.389Z,21.74
2022-07-28T06:30:59.762Z,21.23
2022-07-28T06:33:26.139Z,21.17
2022-07-28T06:35:53.035Z,21.06
2022-07-28T06:38:20.697Z,21.17
2022-07-28T06:40:51.083Z,21.32
2022-07-28T06:43:17.595Z,21.36
2022-07-28T06:45:45.835Z,21.63
2022-07-28T06:48:13.757Z,21.40
2022-07-28T06:50:42.345Z,21.24
2022-07-28T06:53:09.304Z,20.95
2022-07-28T06:55:37.654Z,20.86
2022-07-28T06:58:05.176Z,20.91
2022-07-28T07:00:32.755Z,20.90
2022-07-28T07:03:00.829Z,20.92
2022-07-28T07:05:32.185Z,20.82
2022-07-28T07:07:59.357Z,20.99
2022-07-28T07:10:26.269Z,20.93
2022-07-28T07:12:53.551Z,21.36
2022-07-28T07:15:20.274Z,21.84
2022-07-28T07:17:46.924Z,22.06
2022-07-28T07:20:14.289Z,22.16
2022-07-28T07:22:45.511Z,22.44
2022-07-28T07:25:17.224Z,22.33
2022-07-28T07:27:44.399Z,22.37
2022-07-28T07:30:12.992Z,22.36
2022-07-28T07:32:40.109Z,22.41
2022-07-28T07:35:07.058Z,22.39
2022-07-28T07:37:33.531Z,21.94
2022-07-28T07:40:01.249Z,21.91
2022-07-28T07:42:28.228Z,21.76
2022-07-28T07:44:55.243Z,21.78
2022-07-28T07:47:21.812Z,21.60
2022-07-28T07:49:48.285Z,21.69
2022-07-28T07:52:15.151Z,21.92
2022-07-28T07:54:42.203Z,22.16
2022-07-28T07:57:09.325Z,22.17
2022-07-28T07:59:35.778Z,22.34
2022-07-28T08:02:02.473Z,22.43
2022-07-28T08:04:29.089Z,22.34
2022-07-28T08:06:56.156Z,22.24
2022-07-28T08:09:23.171Z,22.37
2022-07-28T08:11:49.807Z,22.73
2022-07-28T08:14:17.990Z,22.88
2022-07-28T08:16:44.935Z,22.74
2022-07-28T08:19:11.814Z,22.90
2022-07-28T08:21:38.836Z,22.76
2022-07-28T08:24:05.940Z,22.84
2022-07-28T08:26:32.638Z,22.69
2022-07-28T08:28:59.233Z,22.81
2022-07-28T08:31:26.001Z,23.36
2022-07-28T08:33:54.620Z,23.29
2022-07-28T08:36:22.360Z,23.67
2022-07-28T08:38:49.080Z,23.81
2022-07-28T08:41:34.547Z,24.00
2022-07-28T08:44:02.976Z,24.06
2022-07-28T08:46:35.690Z,24.20
2022-07-28T08:49:07.340Z,24.53
2022-07-28T08:51:35.355Z,24.49
2022-07-28T08:54:03.783Z,24.21
2022-07-28T08:56:31.759Z,24.36
2022-07-28T08:58:58.756Z,24.48
2022-07-28T09:01:25.678Z,24.55
2022-07-28T09:04:08.030Z,24.67
2022-07-28T09:06:37.867Z,25.02
2022-07-28T09:09:04.675Z,25.21
2022-07-28T09:11:31.317Z,25.29
2022-07-28T09:13:57.897Z,25.23
2022-07-28T09:16:24.679Z,24.97
2022-07-28T09:18:51.441Z,24.88
2022-07-28T09:21:18.414Z,24.59
2022-07-28T09:23:46.536Z,24.85
2022-07-28T09:26:13.532Z,24.97
2022-07-28T09:28:59.005Z,24.90
2022-07-28T09:31:27.670Z,24.75
2022-07-28T09:34:01.063Z,24.53
2022-07-28T09:36:29.464Z,24.47
2022-07-28T09:38:56.748Z,24.55
2022-07-28T09:41:23.941Z,24.69
2022-07-28T09:43:55.231Z,24.73
2022-07-28T09:46:24.685Z,25.07
2022-07-28T09:48:59.360Z,25.04
2022-07-28T09:51:31.707Z,25.02
2022-07-28T09:54:16.512Z,25.21
2022-07-28T09:56:45.017Z,25.20
2022-07-28T09:59:13.936Z,25.50
2022-07-28T10:01:55.256Z,25.82
2022-07-28T10:04:34.972Z,25.86
2022-07-28T10:07:10.274Z,25.90
2022-07-28T10:09:38.865Z,25.71
2022-07-28T10:12:27.515Z,25.60
2022-07-28T10:14:56.130Z,25.84
2022-07-28T10:17:26.855Z,25.78
2022-07-28T10:19:55.220Z,25.67
2022-07-28T10:22:25.211Z,25.92
2022-07-28T10:24:55.797Z,26.04
2022-07-28T10:27:27.810Z,26.01
2022-07-28T10:29:59.935Z,26.03
2022-07-28T10:32:29.773Z,25.76
2022-07-28T10:35:03.348Z,25.72
2022-07-28T10:37:32.057Z,25.48
2022-07-28T10:40:10.044Z,25.45
2022-07-28T10:42:39.512Z,25.81
2022-07-28T10:45:08.125Z,26.30
2022-07-28T10:47:36.448Z,26.47
2022-07-28T10:50:04.167Z,26.76
2022-07-28T10:52:46.610Z,26.73
2022-07-28T10:55:38.403Z,26.84
2022-07-28T10:58:32.148Z,26.66
2022-07-28T11:01:05.530Z,26.60
2022-07-28T11:03:47.273Z,26.32
2022-07-28T11:06:31.633Z,26.16
2022-07-28T11:09:19.137Z,26.34
2022-07-28T11:11:53.653Z,26.54
2022-07-28T11:14:24.374Z,26.55
2022-07-28T11:17:14.934Z,26.72
2022-07-28T11:19:55.839Z,26.93
2022-07-28T11:22:32.125Z,27.11
2022-07-28T11:25:19.756Z,26.99
2022-07-28T11:27:51.329Z,27.06
2022-07-28T11:30:36.496Z,26.96
2022-07-28T11:33:04.602Z,26.88
2022-07-28T11:35:53.700Z,26.84
2022-07-28T11:38:20.538Z,26.66
2022-07-28T11:40:53.816Z,26.77
2022-07-28T11:43:35.638Z,27.23
2022-07-28T11:46:04.557Z,27.39
2022-07-28T11:48:32.944Z,27.44
2022-07-28T11:51:02.419Z,27.24
2022-07-28T11:53:53.437Z,27.39
2022-07-28T11:56:37.908Z,27.05
2022-07-28T11:59:08.702Z,26.73
2022-07-28T12:01:36.893Z,26.57
2022-07-28T12:04:17.521Z,26.66
2022-07-28T12:06:44.403Z,26.75
2022-07-28T12:09:21.863Z,26.73
2022-07-28T12:11:54.559Z,26.74
2022-07-28T12:14:22.743Z,26.68
2022-07-28T12:16:52.758Z,26.66
2022-07-28T12:19:20.768Z,26.77
2022-07-28T12:21:53.889Z,26.84
2022-07-28T12:24:44.836Z,26.92
2022-07-28T12:27:13.684Z,27.09
2022-07-28T12:29:42.137Z,26.93
2022-07-28T12:32:10.156Z,26.97
2022-07-28T12:34:40.306Z,27.04
2022-07-28T12:37:09.938Z,27.15
2022-07-28T12:39:39.738Z,27.16
2022-07-28T12:42:11.994Z,27.13
2022-07-28T12:44:43.397Z,27.27
2022-07-28T12:47:12.578Z,27.29
2022-07-28T12:49:41.394Z,27.50
2022-07-28T12:52:22.809Z,27.62
2022-07-28T12:54:53.641Z,27.48
2022-07-28T12:57:46.194Z,27.55
2022-07-28T13:00:19.060Z,27.39
2022-07-28T13:02:45.976Z,27.52
2022-07-28T13:05:27.286Z,27.33
2022-07-28T13:08:05.310Z,27.16
2022-07-28T13:10:32.478Z,27.11
2022-07-28T13:13:07.497Z,27.22
2022-07-28T13:15:34.766Z,26.99
2022-07-28T13:18:02.282Z,27.02
2022-07-28T13:20:28.757Z,26.85
2022-07-28T13:22:55.847Z,26.81
2022-07-28T13:25:22.295Z,26.73
2022-07-28T13:27:55.419Z,26.85
2022-07-28T13:30:23.307Z,27.13
2022-07-28T13:32:49.819Z,27.10
2022-07-28T13:35:18.709Z,27.02
2022-07-28T13:37:45.932Z,27.16
2022-07-28T13:40:12.836Z,27.48
2022-07-28T13:42:39.274Z,27.70
2022-07-28T13:45:05.861Z,27.70
2022-07-28T13:47:35.636Z,27.64
2022-07-28T13:50:06.190Z,27.45
2022-07-28T13:52:34.830Z,27.17
2022-07-28T13:55:04.148Z,27.09
2022-07-28T13:57:31.104Z,27.21
2022-07-28T13:59:58.003Z,27.31
2022-07-28T14:02:26.031Z,27.22
2022-07-28T14:04:52.645Z,27.17
2022-07-28T14:07:20.394Z,27.37
2022-07-28T14:09:48.079Z,27.61
2022-07-28T14:12:14.532Z,27.76
2022-07-28T14:14:40.904Z,27.63
2022-07-28T14:17:42.833Z,27.51
2022-07-28T14:20:01.609Z,27.53
2022-07-28T14:22:28.091Z,27.28
2022-07-28T14:24:54.650Z,27.36
2022-07-28T14:27:24.621Z,27.36
2022-07-28T14:29:53.819Z,27.39
2022-07-28T14:32:20.259Z,27.12
2022-07-28T14:34:47.749Z,26.90
2022-07-28T14:37:14.325Z,27.06
2022-07-28T14:39:40.866Z,26.96
2022-07-28T14:42:07.572Z,27.02
2022-07-28T14:44:34.397Z,27.20
2022-07-28T14:47:00.916Z,27.31
2022-07-28T14:49:28.110Z,27.14
2022-07-28T14:51:57.404Z,27.04
2022-07-28T14:54:24.015Z,27.01
2022-07-28T14:56:50.497Z,26.97
2022-07-28T14:59:16.853Z,27.06
2022-07-28T15:01:43.585Z,27.06
2022-07-28T15:04:12.389Z,27.12
2022-07-28T15:06:40.292Z,27.13
2022-07-28T15:09:06.901Z,27.12
2022-07-28T15:11:33.386Z,27.02
2022-07-28T15:13:59.730Z,27.10
2022-07-28T15:16:26.237Z,27.08
2022-07-28T15:18:55.662Z,26.90
2022-07-28T15:21:22.081Z,26.86
2022-07-28T15:23:48.577Z,27.03
2022-07-28T15:26:15.077Z,27.08
2022-07-28T15:28:41.465Z,26.89
2022-07-28T15:31:08.452Z,26.79
2022-07-28T15:33:41.087Z,26.70
2022-07-28T15:36:14.475Z,26.82
2022-07-28T15:38:40.968Z,26.89
2022-07-28T15:41:07.838Z,26.73
2022-07-28T15:43:34.334Z,26.82
2022-07-28T15:46:03.618Z,26.76
2022-07-28T15:48:30.206Z,26.74
2022-07-28T15:50:57.685Z,26.77
2022-07-28T15:53:24.222Z,26.85
2022-07-28T15:55:51.790Z,26.69
2022-07-28T15:58:18.881Z,26.60
2022-07-28T16:00:46.021Z,26.44
2022-07-28T16:03:13.070Z,26.37
2022-07-28T16:05:39.824Z,26.34
2022-07-28T16:08:06.388Z,26.47
2022-07-28T16:10:32.887Z,26.48
2022-07-28T16:12:59.409Z,26.63
2022-07-28T16:15:27.015Z,26.53
2022-07-28T16:17:54.705Z,26.46
2022-07-28T16:20:22.289Z,26.53
2022-07-28T16:22:49.450Z,26.54
2022-07-28T16:25:16.884Z,26.52
2022-07-28T16:27:44.714Z,26.46
2022-07-28T16:30:11.886Z,26.25
2022-07-28T16:32:39.131Z,26.10
2022-07-28T16:35:07.075Z,26.17
2022-07-28T16:37:35.677Z,26.12
2022-07-28T16:40:03.688Z,26.08
2022-07-28T16:42:30.554Z,26.05
2022-07-28T16:44:57.813Z,26.04
2022-07-28T16:47:24.563Z,26.06
2022-07-28T16:49:51.341Z,25.99
2022-07-28T16:52:18.319Z,26.02
2022-07-28T16:54:45.881Z,26.05
2022-07-28T16:57:15.010Z,25.92
2022-07-28T16:59:47.980Z,25.87
2022-07-28T17:02:16.010Z,25.67
2022-07-28T17:04:42.737Z,25.65
2022-07-28T17:07:09.582Z,25.57
2022-07-28T17:09:36.329Z,25.52
2022-07-28T17:12:02.949Z,25.59
2022-07-28T17:14:29.643Z,25.43
2022-07-28T17:17:00.622Z,25.34
2022-07-28T17:19:27.466Z,25.22
2022-07-28T17:22:01.609Z,25.21
2022-07-28T17:24:28.546Z,25.19
2022-07-28T17:29:43.227Z,25.02
2022-07-28T17:32:10.491Z,24.87
2022-07-28T17:34:37.944Z,24.73
2022-07-28T17:37:05.660Z,24.56
2022-07-28T17:39:32.421Z,24.51
2022-07-28T17:41:59.241Z,24.44
2022-07-28T17:44:25.844Z,24.32
2022-07-28T17:46:52.483Z,24.22
2022-07-28T17:49:19.359Z,24.19
2022-07-28T17:51:46.269Z,24.16
2022-07-28T17:54:15.761Z,24.12
2022-07-28T17:56:42.840Z,24.02
2022-07-28T17:59:10.499Z,24.01
2022-07-28T18:01:38.293Z,24.01
2022-07-28T18:04:09.530Z,23.93
2022-07-28T18:06:38.529Z,23.90
2022-07-28T18:09:08.649Z,23.88
2022-07-28T18:11:57.332Z,23.80
2022-07-28T18:14:26.994Z,23.75
2022-07-28T18:16:54.382Z,23.67
2022-07-28T18:19:21.029Z,23.61
2022-07-28T18:21:47.624Z,23.50
2022-07-28T18:24:14.513Z,23.43
2022-07-28T18:26:41.445Z,23.33
2022-07-28T18:29:08.092Z,23.29
2022-07-28T18:31:34.861Z,23.19
2022-07-28T18:34:01.591Z,23.10
2022-07-28T18:36:28.083Z,22.98
2022-07-28T18:38:54.949Z,22.88
2022-07-28T18:41:21.524Z,22.86
2022-07-28T18:43:47.864Z,22.74
2022-07-28T18:46:14.419Z,22.63
2022-07-28T18:48:40.952Z,22.54
2022-07-28T18:51:07.465Z,22.46
2022-07-28T18:53:34.510Z,22.35
2022-07-28T18:56:00.948Z,22.23
2022-07-28T18:58:27.406Z,22.11
2022-07-28T19:00:54.774Z,22.01
2022-07-28T19:03:21.344Z,21.87
2022-07-28T19:05:47.771Z,21.74
2022-07-28T19:08:14.136Z,21.61
2022-07-28T19:10:40.578Z,21.50
2022-07-28T19:13:12.300Z,21.37
2022-07-28T19:15:40.340Z,21.23
2022-07-28T19:18:09.971Z,21.12
2022-07-28T19:20:44.000Z,21.01
2022-07-28T19:23:10.703Z,20.88
2022-07-28T19:25:38.354Z,20.74
2022-07-28T19:28:05.864Z,20.63
2022-07-28T19:30:32.560Z,20.52
2022-07-28T19:32:59.075Z,20.34
2022-07-28T19:35:25.709Z,20.17
2022-07-28T19:37:52.210Z,20.02
2022-07-28T19:40:18.839Z,19.94
2022-07-28T19:42:47.020Z,19.81
2022-07-28T19:45:13.725Z,19.65
2022-07-28T19:47:40.095Z,19.51
2022-07-28T19:50:06.694Z,19.40
2022-07-28T19:52:34.315Z,19.42
2022-07-28T19:55:01.012Z,19.39
2022-07-28T19:57:27.434Z,19.33
2022-07-28T19:59:53.888Z,19.37
2022-07-28T20:02:20.389Z,19.33
2022-07-28T20:04:46.980Z,19.39
2022-07-28T20:07:13.459Z,19.35
2022-07-28T20:09:39.918Z,19.29
2022-07-28T20:12:07.861Z,19.27
2022-07-28T20:14:35.876Z,19.24
2022-07-28T20:17:02.464Z,19.26
2022-07-28T20:19:30.119Z,19.21
2022-07-28T20:21:57.519Z,19.18
2022-07-28T20:24:24.333Z,19.14
2022-07-28T20:26:50.968Z,19.14
2022-07-28T20:29:18.328Z,19.07
2022-07-28T20:31:44.960Z,18.93
2022-07-28T20:34:13.224Z,18.79
2022-07-28T20:36:40.314Z,18.59
2022-07-28T20:39:21.404Z,18.48
2022-07-28T20:41:54.659Z,18.33
2022-07-28T20:44:30.143Z,18.23
2022-07-28T20:47:02.463Z,18.12
2022-07-28T20:49:29.772Z,18.04
2022-07-28T20:51:58.145Z,17.97
2022-07-28T20:54:26.423Z,17.90
2022-07-28T20:56:53.886Z,17.81
2022-07-28T20:59:20.719Z,17.74
2022-07-28T21:01:47.359Z,17.66
2022-07-28T21:04:14.665Z,17.59
2022-07-28T21:06:52.110Z,17.53
2022-07-28T21:09:20.398Z,17.45
2022-07-28T21:11:46.927Z,17.33
2022-07-28T21:14:13.601Z,17.21
2022-07-28T21:16:40.425Z,17.10
2022-07-28T21:19:08.771Z,16.96
2022-07-28T21:21:35.648Z,16.83
2022-07-28T21:24:02.288Z,16.72
2022-07-28T21:26:29.040Z,16.70
2022-07-28T21:32:03.675Z,16.54
2022-07-28T21:34:30.277Z,16.53
2022-07-28T21:36:57.280Z,16.55
2022-07-28T21:39:23.973Z,16.55
2022-07-28T21:41:50.730Z,16.46
2022-07-28T21:44:18.095Z,16.36
2022-07-28T21:46:45.868Z,16.28
2022-07-28T21:49:12.948Z,16.22
2022-07-28T21:51:40.149Z,16.19
2022-07-28T21:54:07.296Z,16.17
2022-07-28T21:56:35.015Z,16.11
2022-07-28T21:59:02.793Z,16.04
2022-07-28T22:01:29.866Z,15.94
2022-07-28T22:03:57.264Z,15.89
2022-07-28T22:06:24.287Z,15.81
2022-07-28T22:08:54.120Z,15.74
2022-07-28T22:11:22.789Z,15.69
2022-07-28T22:13:49.821Z,15.63
2022-07-28T22:16:16.633Z,15.60
2022-07-28T22:18:43.231Z,15.53
2022-07-28T22:21:09.778Z,15.48
2022-07-28T22:23:36.381Z,15.42
2022-07-28T22:26:03.212Z,15.39
2022-07-28T22:28:30.829Z,15.36
2022-07-28T22:31:09.639Z,15.32
2022-07-28T22:33:39.643Z,15.24
2022-07-28T22:36:07.004Z,15.16
2022-07-28T22:38:33.644Z,15.11
2022-07-28T22:41:00.424Z,15.01
2022-07-28T22:43:27.107Z,14.94
2022-07-28T22:45:53.812Z,14.91
2022-07-28T22:48:20.777Z,14.90
2022-07-28T22:50:47.341Z,14.85
2022-07-28T22:53:13.932Z,14.84
2022-07-28T22:55:40.482Z,14.82
2022-07-28T22:58:07.104Z,14.79
2022-07-28T23:00:36.210Z,14.76
2022-07-28T23:03:04.168Z,14.74
2022-07-28T23:05:31.018Z,14.72
2022-07-28T23:07:58.983Z,14.66
2022-07-28T23:10:26.180Z,14.61
2022-07-28T23:12:55.180Z,14.58
2022-07-28T23:15:41.342Z,14.53
2022-07-28T23:18:14.162Z,14.48
2022-07-28T23:20:41.562Z,14.47
2022-07-28T23:23:08.894Z,14.44
2022-07-28T23:25:42.856Z,14.36
2022-07-28T23:28:10.747Z,14.37
2022-07-28T23:30:38.148Z,14.37
2022-07-28T23:33:05.552Z,14.40
2022-07-28T23:35:32.448Z,14.36
2022-07-28T23:37:59.135Z,14.31
2022-07-28T23:40:25.889Z,14.30
2022-07-28T23:42:52.555Z,14.28
2022-07-28T23:45:19.274Z,14.24
2022-07-28T23:47:45.979Z,14.18
2022-07-28T23:50:12.876Z,14.18
2022-07-28T23:52:39.389Z,14.18
2022-07-28T23:55:06.666Z,14.18
2022-07-28T23:57:33.308Z,14.17
